Time;durP1;ratioP1;P1;durP2;ratioP2;P2;SDS_P1;SDS_P2;PMS_P1;PMS_P2;Temp;Humidity;BMP_temperature;BMP_pressure;BME280_temperature;BME280_humidity;BME280_pressure;Samples;Min_cycle;Max_cycle;Signal;HPM_P1;HPM_P2
2021/10/14 00:02:20;;;;;;;3.50;2.30;;;;;;;-144.51;100.00;69251.94;4890201;29;20568;-77
2021/10/14 00:05:06;;;;;;;9.43;2.90;;;;;;;-144.51;100.00;69251.94;4893139;29;20683;-77
2021/10/14 00:07:50;;;;;;;4.45;2.50;;;;;;;-144.51;100.00;69251.94;4889701;29;20044;-77
2021/10/14 00:10:35;;;;;;;2.53;1.63;;;;;;;-144.51;100.00;69251.94;4890608;29;20425;-76
2021/10/14 00:13:20;;;;;;;3.75;2.28;;;;;;;-144.51;100.00;69251.94;4888499;29;20033;-77
2021/10/14 00:16:04;;;;;;;3.03;1.70;;;;;;;-144.51;100.00;69251.94;4893621;29;20052;-77
2021/10/14 00:18:49;;;;;;;;;;;;;;;-144.51;100.00;69251.94;4893528;29;20040;-76
2021/10/14 00:21:34;;;;;;;3.67;2.28;;;;;;;-144.51;100.00;69251.94;4886891;29;19919;-76
2021/10/14 00:24:18;;;;;;;3.85;2.28;;;;;;;-144.51;100.00;69251.94;4887916;29;20053;-77
2021/10/14 00:27:03;;;;;;;3.60;2.38;;;;;;;-144.51;100.00;69251.94;4883502;29;20449;-77
2021/10/14 00:29:48;;;;;;;8.05;2.70;;;;;;;-144.51;100.00;69251.94;4888657;29;20048;-77
2021/10/14 00:32:32;;;;;;;;;;;;;;;-144.51;100.00;69251.94;4889624;29;20044;-76
2021/10/14 00:35:17;;;;;;;4.93;2.10;;;;;;;-144.51;100.00;69251.94;4891803;29;19919;-76
2021/10/14 00:38:02;;;;;;;3.78;2.25;;;;;;;-144.51;100.00;69251.94;4879632;29;20045;-76
2021/10/14 00:40:48;;;;;;;5.18;2.40;;;;;;;-144.51;100.00;69251.94;4890362;29;20057;-76
2021/10/14 00:43:33;;;;;;;3.22;1.85;;;;;;;-144.51;100.00;69251.94;4878572;29;20044;-76
2021/10/14 00:46:18;;;;;;;2.30;1.50;;;;;;;-144.51;100.00;69251.94;4881758;29;20060;-76
2021/10/14 00:49:03;;;;;;;4.22;1.58;;;;;;;-144.51;100.00;69251.94;4878468;29;20045;-76
2021/10/14 00:51:47;;;;;;;4.90;2.30;;;;;;;-144.51;100.00;69251.94;4893147;29;20497;-77
2021/10/14 00:54:32;;;;;;;9.15;1.98;;;;;;;-144.51;100.00;69251.94;4876986;29;20041;-78
2021/10/14 00:57:18;;;;;;;3.03;2.03;;;;;;;-144.51;100.00;69251.94;4891178;29;20052;-77
2021/10/14 01:00:04;;;;;;;;;;;;;;;-144.51;100.00;69251.94;4892206;29;20426;-77
2021/10/14 01:02:49;;;;;;;3.42;2.17;;;;;;;-144.51;100.00;69251.94;4894305;29;19923;-76
2021/10/14 01:05:34;;;;;;;;;;;;;;;-144.51;100.00;69251.94;4887161;29;20048;-76
2021/10/14 01:08:18;;;;;;;2.90;2.00;;;;;;;-144.51;100.00;69251.94;4892790;29;19920;-76
2021/10/14 01:11:03;;;;;;;;;;;;;;;-144.51;100.00;69251.94;4893353;29;20417;-77
2021/10/14 01:13:48;;;;;;;11.90;3.55;;;;;;;-144.51;100.00;69251.94;4887523;29;19920;-76
2021/10/14 01:16:40;;;;;;;;;;;;;;;-144.51;100.00;69251.94;4888203;29;20044;-76
2021/10/14 01:19:25;;;;;;;11.25;2.78;;;;;;;-144.51;100.00;69251.94;4890980;29;19919;-77
2021/10/14 01:22:11;;;;;;;15.82;3.28;;;;;;;-144.51;100.00;69251.94;4892223;29;20048;-77
2021/10/14 01:24:56;;;;;;;9.27;2.92;;;;;;;-144.51;100.00;69251.94;4891234;29;20135;-76
2021/10/14 01:27:41;;;;;;;9.43;2.72;;;;;;;-144.51;100.00;69251.94;4890081;29;20048;-76
2021/10/14 01:30:26;;;;;;;12.35;3.17;;;;;;;-144.51;100.00;69251.94;4894362;29;20056;-76
2021/10/14 01:33:11;;;;;;;8.50;2.20;;;;;;;-144.51;100.00;69251.94;4897653;29;20052;-77
2021/10/14 01:35:56;;;;;;;5.53;2.10;;;;;;;-144.51;100.00;69251.94;4888639;29;20045;-76
2021/10/14 01:38:41;;;;;;;10.60;3.80;;;;;;;-144.51;100.00;69251.94;4897719;29;20052;-76
2021/10/14 01:41:26;;;;;;;;;;;;;;;-144.51;100.00;69251.94;4896742;29;20052;-77
2021/10/14 01:44:12;;;;;;;12.75;2.47;;;;;;;-144.51;100.00;69251.94;4903454;29;20415;-76
2021/10/14 01:46:57;;;;;;;10.02;2.80;;;;;;;-144.51;100.00;69251.94;4895886;29;20048;-78
2021/10/14 01:49:42;;;;;;;3.42;1.60;;;;;;;-144.51;100.00;69251.94;4898662;29;20044;-75
2021/10/14 01:52:27;;;;;;;;;;;;;;;-144.51;100.00;69251.94;4898796;29;20678;-76
2021/10/14 01:55:11;;;;;;;10.27;2.47;;;;;;;-144.51;100.00;69251.94;4898017;29;19919;-77
2021/10/14 01:57:56;;;;;;;7.40;2.70;;;;;;;-144.51;100.00;69251.94;4889891;29;20045;-76
2021/10/14 02:00:41;;;;;;;;;;;;;;;-144.51;100.00;69251.94;4890352;29;20056;-77
2021/10/14 02:03:26;;;;;;;7.72;2.67;;;;;;;-144.51;100.00;69251.94;4885677;29;19924;-76
2021/10/14 02:06:11;;;;;;;;;;;;;;;-144.51;100.00;69251.94;4897757;29;20044;-75
2021/10/14 02:08:56;;;;;;;6.15;2.30;;;;;;;-144.51;100.00;69251.94;4889219;29;19920;-76
2021/10/14 02:11:40;;;;;;;;;;;;;;;-144.51;100.00;69251.94;4897793;29;20513;-77
2021/10/14 02:14:26;;;;;;;11.80;4.05;;;;;;;-144.51;100.00;69251.94;4899454;29;19919;-75
2021/10/14 02:17:11;;;;;;;18.77;2.70;;;;;;;-144.51;100.00;69251.94;4891603;29;20040;-76
2021/10/14 02:19:55;;;;;;;10.38;3.10;;;;;;;-144.51;100.00;69251.94;4889956;29;20429;-77
2021/10/14 02:22:40;;;;;;;;;;;;;;;-144.51;100.00;69251.94;4898886;29;20498;-76
2021/10/14 02:25:26;;;;;;;15.18;2.97;;;;;;;-144.51;100.00;69251.94;4897863;29;20277;-77
2021/10/14 02:28:10;;;;;;;3.50;2.10;;;;;;;-144.51;100.00;69251.94;4893150;29;20044;-76
2021/10/14 02:30:55;;;;;;;6.50;2.70;;;;;;;-144.51;100.00;69251.94;4898688;29;20048;-77
2021/10/14 02:33:40;;;;;;;11.38;3.05;;;;;;;-144.51;100.00;69251.94;4897572;29;20052;-77
2021/10/14 02:36:24;;;;;;;4.85;2.80;;;;;;;-144.51;100.00;69251.94;4891570;29;20413;-78
2021/10/14 02:39:09;;;;;;;9.13;2.72;;;;;;;-144.51;100.00;69251.94;4897592;29;20525;-77
2021/10/14 02:41:54;;;;;;;6.25;2.65;;;;;;;-144.51;100.00;69251.94;4897143;29;20044;-77
2021/10/14 02:44:39;;;;;;;6.93;2.15;;;;;;;-144.51;100.00;69251.94;4891821;29;20045;-77
2021/10/14 02:47:23;;;;;;;9.93;2.72;;;;;;;-144.51;100.00;69251.94;4889399;29;20429;-78
2021/10/14 02:50:08;;;;;;;;;;;;;;;-144.51;100.00;69251.94;4888080;29;20040;-76
2021/10/14 02:52:53;;;;;;;10.50;2.88;;;;;;;-144.51;100.00;69251.94;4894420;29;19919;-76
2021/10/14 02:55:38;;;;;;;7.00;1.88;;;;;;;-144.51;100.00;69251.94;4903205;29;20041;-77
2021/10/14 02:58:23;;;;;;;6.57;2.45;;;;;;;-144.51;100.00;69251.94;4890722;29;20044;-77
2021/10/14 03:01:07;;;;;;;5.57;1.45;;;;;;;-144.51;100.00;69251.94;4893386;29;20044;-76
2021/10/14 03:03:52;;;;;;;8.80;1.77;;;;;;;-144.51;100.00;69251.94;4907648;29;20502;-76
2021/10/14 03:06:37;;;;;;;6.25;2.42;;;;;;;-144.51;100.00;69251.94;4894878;29;20053;-76
2021/10/14 03:09:22;;;;;;;;;;;;;;;-144.51;100.00;69251.94;4889020;29;20052;-77
2021/10/14 03:12:06;;;;;;;5.45;2.58;;;;;;;-144.51;100.00;69251.94;4887102;29;20281;-76
2021/10/14 03:14:51;;;;;;;5.07;2.22;;;;;;;-144.51;100.00;69251.94;4895301;29;20044;-76
2021/10/14 03:17:36;;;;;;;;;;;;;;;-144.51;100.00;69251.94;4894993;29;20048;-76
2021/10/14 03:20:21;;;;;;;4.22;2.10;;;;;;;-144.51;100.00;69251.94;4889496;29;19919;-76
2021/10/14 03:23:05;;;;;;;2.97;2.25;;;;;;;-144.51;100.00;69251.94;4888982;29;20600;-76
2021/10/14 03:25:50;;;;;;;;;;;;;;;-144.51;100.00;69251.94;4894491;29;20053;-77
2021/10/14 03:28:35;;;;;;;8.73;2.72;;;;;;;-144.51;100.00;69251.94;4890730;29;19920;-77
2021/10/14 03:31:20;;;;;;;3.08;1.45;;;;;;;-144.51;100.00;69251.94;4886911;29;20044;-77
2021/10/14 03:34:05;;;;;;;5.70;1.67;;;;;;;-144.51;100.00;69251.94;4892944;29;20506;-77
2021/10/14 03:36:50;;;;;;;;;;;;;;;-144.51;100.00;69251.94;4894406;29;20048;-76
2021/10/14 03:39:35;;;;;;;6.22;2.15;;;;;;;-144.51;100.00;69251.94;4895676;29;19919;-77
2021/10/14 03:42:21;;;;;;;6.40;2.67;;;;;;;-144.51;100.00;69251.94;4899255;29;20053;-77
2021/10/14 03:45:07;;;;;;;4.60;2.45;;;;;;;-144.51;100.00;69251.94;4884551;29;20037;-76
2021/10/14 03:47:51;;;;;;;4.90;2.10;;;;;;;-144.51;100.00;69251.94;4894530;29;20052;-77
2021/10/14 03:50:36;;;;;;;5.22;2.55;;;;;;;-144.51;100.00;69251.94;4875641;29;20048;-77
2021/10/14 03:53:21;;;;;;;3.10;2.08;;;;;;;-144.51;100.00;69251.94;4893281;29;20040;-76
2021/10/14 03:56:06;;;;;;;;;;;;;;;-144.51;100.00;69251.94;4894045;29;20045;-78
2021/10/14 03:58:51;;;;;;;7.13;2.15;;;;;;;-144.51;100.00;69251.94;4893478;29;19919;-77
2021/10/14 04:01:35;;;;;;;3.35;1.52;;;;;;;-144.51;100.00;69251.94;4887776;29;20048;-75
2021/10/14 04:04:23;;;;;;;1.45;0.93;;;;;;;-144.51;100.00;69251.94;4894180;29;20513;-76
2021/10/14 04:07:07;;;;;;;4.07;1.65;;;;;;;-144.51;100.00;69251.94;4886636;29;20060;-76
2021/10/14 04:09:52;;;;;;;4.78;2.92;;;;;;;-144.51;100.00;69251.94;4895096;29;20044;-77
2021/10/14 04:12:37;;;;;;;4.47;2.45;;;;;;;-144.51;100.00;69251.94;4896574;29;20493;-75
2021/10/14 04:15:22;;;;;;;2.90;1.65;;;;;;;-144.51;100.00;69251.94;4890281;29;20425;-76
2021/10/14 04:18:07;;;;;;;2.85;1.60;;;;;;;-144.51;100.00;69251.94;4896692;29;20045;-76
2021/10/14 04:20:52;;;;;;;7.93;2.45;;;;;;;-144.51;100.00;69251.94;4891848;29;20049;-75
2021/10/14 04:23:42;;;;;;;2.58;1.48;;;;;;;-144.51;100.00;69251.94;4904284;29;20595;-76
2021/10/14 04:26:27;;;;;;;2.72;1.48;;;;;;;-144.51;100.00;69251.94;4901823;29;20044;-77
2021/10/14 04:29:12;;;;;;;;;;;;;;;-144.51;100.00;69251.94;4892948;29;20040;-76
2021/10/14 04:31:57;;;;;;;12.25;2.00;;;;;;;-144.51;100.00;69251.94;4887126;29;19915;-76
2021/10/14 04:34:42;;;;;;;2.28;1.45;;;;;;;-144.51;100.00;69251.94;4900915;29;20033;-77
2021/10/14 04:37:27;;;;;;;5.55;2.20;;;;;;;-144.51;100.00;69251.94;4894665;29;20040;-76
2021/10/14 04:40:12;;;;;;;3.42;1.40;;;;;;;-144.51;100.00;69251.94;4893642;29;20049;-75
2021/10/14 04:42:56;;;;;;;6.70;2.15;;;;;;;-144.51;100.00;69251.94;4891856;29;20486;-75
2021/10/14 04:45:41;;;;;;;8.50;1.85;;;;;;;-144.51;100.00;69251.94;4897895;29;20048;-77
2021/10/14 04:48:26;;;;;;;5.63;1.35;;;;;;;-144.51;100.00;69251.94;4883288;29;20066;-75
2021/10/14 04:51:11;;;;;;;2.25;1.50;;;;;;;-144.51;100.00;69251.94;4890517;29;20044;-76
2021/10/14 04:53:55;;;;;;;4.57;1.67;;;;;;;-144.51;100.00;69251.94;4889106;29;20049;-75
2021/10/14 04:56:39;;;;;;;4.55;1.63;;;;;;;-144.51;100.00;69251.94;4899601;29;20040;-76
2021/10/14 04:59:24;;;;;;;7.38;2.10;;;;;;;-144.51;100.00;69251.94;4892579;29;20044;-76
2021/10/14 05:02:09;;;;;;;5.07;1.50;;;;;;;-144.51;100.00;69251.94;4894733;29;20497;-75
2021/10/14 05:04:53;;;;;;;7.65;2.75;;;;;;;-144.51;100.00;69251.94;4893095;29;20506;-77
2021/10/14 05:07:38;;;;;;;2.85;1.48;;;;;;;-144.51;100.00;69251.94;4895801;29;20048;-75
2021/10/14 05:10:23;;;;;;;8.30;1.80;;;;;;;-144.51;100.00;69251.94;4914776;23;20469;-80
2021/10/14 05:13:08;;;;;;;6.68;2.38;;;;;;;-144.51;100.00;69251.94;4904415;29;20047;-79
2021/10/14 05:15:53;;;;;;;11.00;3.97;;;;;;;-144.51;100.00;69251.94;4913433;29;20048;-79
2021/10/14 05:18:38;;;;;;;9.55;2.65;;;;;;;-144.51;100.00;69251.94;4909667;29;20044;-79
2021/10/14 05:21:22;;;;;;;4.60;1.60;;;;;;;-144.51;100.00;69251.94;4899040;29;20041;-79
2021/10/14 05:24:07;;;;;;;6.53;2.00;;;;;;;-144.51;100.00;69251.94;4898559;29;20048;-75
2021/10/14 05:26:52;;;;;;;5.32;1.17;;;;;;;-144.51;100.00;69251.94;4886193;29;20052;-77
2021/10/14 05:29:36;;;;;;;8.57;1.92;;;;;;;-144.51;100.00;69251.94;4883041;29;20505;-78
2021/10/14 05:32:21;;;;;;;10.70;1.60;;;;;;;-144.51;100.00;69251.94;4890782;29;20608;-75
2021/10/14 05:35:06;;;;;;;6.40;1.83;;;;;;;-144.51;100.00;69251.94;4886833;29;20048;-76
2021/10/14 05:37:51;;;;;;;1.95;1.08;;;;;;;-144.51;100.00;69251.94;4894340;29;20064;-75
2021/10/14 05:40:36;;;;;;;17.02;2.97;;;;;;;-144.51;100.00;69251.94;4889808;29;20044;-76
2021/10/14 05:43:20;;;;;;;;;;;;;;;-144.51;100.00;69251.94;4890313;29;20041;-75
2021/10/14 05:46:05;;;;;;;6.57;1.42;;;;;;;-144.51;100.00;69251.94;4898511;29;19915;-76
2021/10/14 05:48:50;;;;;;;6.53;1.20;;;;;;;-144.51;100.00;69251.94;4898879;29;20044;-76
2021/10/14 05:51:35;;;;;;;3.15;1.15;;;;;;;-144.51;100.00;69251.94;4897338;29;20044;-76
2021/10/14 05:54:19;;;;;;;17.48;1.75;;;;;;;-144.51;100.00;69251.94;4896194;29;20049;-75
2021/10/14 05:57:04;;;;;;;10.45;2.00;;;;;;;-144.51;100.00;69251.94;4896067;29;20052;-76
2021/10/14 05:59:48;;;;;;;8.10;2.00;;;;;;;-144.51;100.00;69251.94;4896467;29;20478;-76
2021/10/14 06:02:33;;;;;;;5.30;1.85;;;;;;;-144.51;100.00;69251.94;4896369;29;20490;-76
2021/10/14 06:05:18;;;;;;;5.85;1.80;;;;;;;-144.51;100.00;69251.94;4893610;29;20037;-77
2021/10/14 06:08:03;;;;;;;4.63;1.10;;;;;;;-144.51;100.00;69251.94;4896222;29;20041;-76
2021/10/14 06:10:48;;;;;;;;;;;;;;;-144.51;100.00;69251.94;4898443;29;20048;-76
2021/10/14 06:13:35;;;;;;;10.68;2.10;;;;;;;-144.51;100.00;69251.94;4896536;29;19915;-76
2021/10/14 06:16:20;;;;;;;13.27;2.33;;;;;;;-144.51;100.00;69251.94;4896122;29;20049;-75
2021/10/14 06:19:05;;;;;;;11.10;1.90;;;;;;;-144.51;100.00;69251.94;4898040;29;20048;-75
2021/10/14 06:21:49;;;;;;;5.57;2.10;;;;;;;-144.51;100.00;69251.94;4899865;29;20040;-76
2021/10/14 06:24:34;;;;;;;7.53;1.60;;;;;;;-144.51;100.00;69251.94;4898622;29;20044;-75
2021/10/14 06:27:19;;;;;;;8.60;1.83;;;;;;;-144.51;100.00;69251.94;4901850;29;20036;-76
2021/10/14 06:30:04;;;;;;;13.88;2.13;;;;;;;-144.51;100.00;69251.94;4913497;29;20044;-76
2021/10/14 06:32:49;;;;;;;9.25;2.00;;;;;;;-144.51;100.00;69251.94;4899756;29;20052;-77
2021/10/14 06:35:34;;;;;;;6.88;2.53;;;;;;;-144.51;100.00;69251.94;4899358;29;20044;-77
2021/10/14 06:38:19;;;;;;;9.15;1.55;;;;;;;-144.51;100.00;69251.94;4913574;29;20134;-76
2021/10/14 06:41:04;;;;;;;7.13;1.83;;;;;;;-144.51;100.00;69251.94;4899472;29;20048;-76
2021/10/14 06:43:49;;;;;;;7.00;1.73;;;;;;;-144.51;100.00;69251.94;4899310;29;20414;-76
2021/10/14 06:46:36;;;;;;;8.10;1.48;;;;;;;-144.51;100.00;69251.94;4900239;29;20405;-75
2021/10/14 06:49:20;;;;;;;5.22;1.45;;;;;;;-144.51;100.00;69251.94;4903766;29;20060;-76
2021/10/14 06:52:05;;;;;;;14.90;2.17;;;;;;;-144.51;100.00;69251.94;4898892;29;20049;-76
2021/10/14 06:54:50;;;;;;;8.20;1.83;;;;;;;-144.51;100.00;69251.94;4898826;29;20045;-75
2021/10/14 06:57:34;;;;;;;16.85;2.90;;;;;;;-144.51;100.00;69251.94;4898827;29;20044;-75
2021/10/14 07:00:22;;;;;;;6.15;1.83;;;;;;;-144.51;100.00;69251.94;4899418;29;20045;-75
2021/10/14 07:03:07;;;;;;;6.85;1.75;;;;;;;-144.51;100.00;69251.94;4898032;29;20044;-76
2021/10/14 07:05:52;;;;;;;4.22;1.25;;;;;;;-144.51;100.00;69251.94;4898994;29;20053;-77
2021/10/14 07:08:36;;;;;;;12.38;2.63;;;;;;;-144.51;100.00;69251.94;4899016;29;20045;-76
2021/10/14 07:11:21;;;;;;;15.48;3.58;;;;;;;-144.51;100.00;69251.94;4899371;29;20044;-76
2021/10/14 07:14:06;;;;;;;12.93;2.80;;;;;;;-144.51;100.00;69251.94;4897916;29;20036;-76
2021/10/14 07:16:52;;;;;;;3.88;1.92;;;;;;;-144.51;100.00;69251.94;4900982;29;20049;-76
2021/10/14 07:19:37;;;;;;;6.28;1.67;;;;;;;-144.51;100.00;69251.94;4898857;29;20036;-76
2021/10/14 07:22:22;;;;;;;3.53;0.93;;;;;;;-144.51;100.00;69251.94;4903042;29;20501;-76
2021/10/14 07:25:07;;;;;;;12.40;2.50;;;;;;;-144.51;100.00;69251.94;4898863;29;20040;-76
2021/10/14 07:27:51;;;;;;;9.25;1.50;;;;;;;-144.51;100.00;69251.94;4897586;29;20052;-75
2021/10/14 07:30:38;;;;;;;4.88;1.40;;;;;;;-144.51;100.00;69251.94;4901596;29;20041;-77
2021/10/14 07:33:23;;;;;;;7.82;2.40;;;;;;;-144.51;100.00;69251.94;4898691;29;20048;-77
2021/10/14 07:36:08;;;;;;;;;;;;;;;-144.51;100.00;69251.94;4899682;29;20052;-76
2021/10/14 07:38:52;;;;;;;17.95;2.60;;;;;;;-144.51;100.00;69251.94;4898347;29;20365;-76
2021/10/14 07:41:37;;;;;;;8.65;1.65;;;;;;;-144.51;100.00;69251.94;4898378;29;20044;-76
2021/10/14 07:44:21;;;;;;;5.90;2.40;;;;;;;-144.51;100.00;69251.94;4899363;29;20044;-76
2021/10/14 07:47:06;;;;;;;6.93;2.05;;;;;;;-144.51;100.00;69251.94;4897867;29;20724;-76
2021/10/14 07:49:51;;;;;;;6.97;2.35;;;;;;;-144.51;100.00;69251.94;4898490;29;20505;-78
2021/10/14 07:52:36;;;;;;;6.82;1.92;;;;;;;-144.51;100.00;69251.94;4897210;29;20045;-76
2021/10/14 07:55:21;;;;;;;9.50;1.85;;;;;;;-144.51;100.00;69251.94;4915510;29;20355;-76
2021/10/14 07:58:05;;;;;;;5.65;1.60;;;;;;;-144.51;100.00;69251.94;4898103;29;20041;-76
2021/10/14 08:00:50;;;;;;;4.00;1.63;;;;;;;-144.51;100.00;69251.94;4897386;29;20060;-75
2021/10/14 08:03:35;;;;;;;;;;;;;;;-144.51;100.00;69251.94;4898299;29;20041;-75
2021/10/14 08:06:19;;;;;;;6.30;1.73;;;;;;;-144.51;100.00;69251.94;4900111;29;19916;-76
2021/10/14 08:09:04;;;;;;;2.45;0.95;;;;;;;-144.51;100.00;69251.94;4897927;29;20493;-76
2021/10/14 08:11:49;;;;;;;3.78;1.70;;;;;;;-144.51;100.00;69251.94;4898180;29;20053;-76
2021/10/14 08:14:34;;;;;;;5.57;1.15;;;;;;;-144.51;100.00;69251.94;4897827;29;20498;-76
2021/10/14 08:17:19;;;;;;;8.13;2.00;;;;;;;-144.51;100.00;69251.94;4897622;29;20052;-76
2021/10/14 08:20:07;;;;;;;3.20;1.20;;;;;;;-144.51;100.00;69251.94;4897570;29;20040;-76
2021/10/14 08:22:53;;;;;;;11.30;1.27;;;;;;;-144.51;100.00;69251.94;4897825;29;20032;-76
2021/10/14 08:25:38;;;;;;;5.97;1.75;;;;;;;-144.51;100.00;69251.94;4897444;29;20049;-76
2021/10/14 08:28:24;;;;;;;2.03;1.20;;;;;;;-144.51;100.00;69251.94;4896536;29;20045;-76
2021/10/14 08:31:09;;;;;;;6.20;2.22;;;;;;;-144.51;100.00;69251.94;4896533;29;20530;-76
2021/10/14 08:33:54;;;;;;;3.10;1.33;;;;;;;-144.51;100.00;69251.94;4909816;29;20036;-76
2021/10/14 08:36:40;;;;;;;3.63;0.93;;;;;;;-144.51;100.00;69251.94;4896459;29;20040;-77
2021/10/14 08:39:25;;;;;;;2.45;1.38;;;;;;;-144.51;100.00;69251.94;4897383;29;20498;-76
2021/10/14 08:42:10;;;;;;;3.53;1.83;;;;;;;-144.51;100.00;69251.94;4895882;29;20040;-75
2021/10/14 08:44:55;;;;;;;4.22;1.48;;;;;;;-144.51;100.00;69251.94;4909410;29;20053;-75
2021/10/14 08:47:40;;;;;;;3.25;1.77;;;;;;;-144.51;100.00;69251.94;4909287;29;20044;-76
2021/10/14 08:50:25;;;;;;;4.72;1.35;;;;;;;-144.51;100.00;69251.94;4912076;29;20048;-76
2021/10/14 08:53:10;;;;;;;7.18;1.67;;;;;;;-144.51;100.00;69251.94;4910124;29;20041;-75
2021/10/14 08:55:56;;;;;;;5.90;1.67;;;;;;;-144.51;100.00;69251.94;4912774;29;20045;-76
2021/10/14 08:58:40;;;;;;;2.90;1.00;;;;;;;-144.51;100.00;69251.94;4897517;29;20414;-76
2021/10/14 09:01:25;;;;;;;;;;;;;;;-144.51;100.00;69251.94;4897371;29;20049;-76
2021/10/14 09:04:14;;;;;;;3.78;0.93;;;;;;;-144.51;100.00;69251.94;4896864;29;20377;-76
2021/10/14 09:07:15;;;;;;;6.45;1.30;;;;;;;-144.51;100.00;69251.94;4884203;29;20510;-76
2021/10/14 09:10:10;;;;;;;2.17;1.17;;;;;;;-144.51;100.00;69251.94;4900740;29;20045;-75
2021/10/14 09:12:55;;;;;;;4.57;1.45;;;;;;;-144.51;100.00;69251.94;4896856;29;20041;-76
2021/10/14 09:15:40;;;;;;;;;;;;;;;-144.51;100.00;69251.94;4909934;29;20041;-76
2021/10/14 09:18:25;;;;;;;2.42;1.05;;;;;;;-144.51;100.00;69251.94;4896739;29;20397;-76
2021/10/14 09:21:20;;;;;;;23.83;3.70;;;;;;;-144.51;100.00;69251.94;4896678;29;20044;-76
2021/10/14 09:24:26;;;;;;;2.17;1.00;;;;;;;-144.51;100.00;69251.94;4896501;29;20041;-76
2021/10/14 09:27:14;;;;;;;4.97;1.10;;;;;;;-144.51;100.00;69251.94;4896406;29;20044;-76
2021/10/14 09:29:59;;;;;;;4.68;1.20;;;;;;;-144.51;100.00;69251.94;4896605;29;20052;-76
2021/10/14 09:32:43;;;;;;;7.30;1.85;;;;;;;-144.51;100.00;69251.94;4896646;29;20418;-76
2021/10/14 09:35:28;;;;;;;1.92;1.52;;;;;;;-144.51;100.00;69251.94;4896634;29;20061;-76
2021/10/14 09:38:29;;;;;;;;;;;;;;;-144.51;100.00;69251.94;4896961;29;20044;-76
2021/10/14 09:41:16;;;;;;;3.15;1.85;;;;;;;-144.51;100.00;69251.94;4896512;29;19915;-76
2021/10/14 09:44:05;;;;;;;7.45;1.27;;;;;;;-144.51;100.00;69251.94;4896686;29;20041;-76
2021/10/14 09:46:55;;;;;;;3.45;1.35;;;;;;;-144.51;100.00;69251.94;4896277;29;20443;-76
2021/10/14 09:49:40;;;;;;;1.85;1.23;;;;;;;-144.51;100.00;69251.94;4896457;29;20045;-76
2021/10/14 09:52:24;;;;;;;2.17;1.17;;;;;;;-144.51;100.00;69251.94;4895606;29;20049;-76
2021/10/14 09:55:11;;;;;;;2.08;0.98;;;;;;;-144.51;100.00;69251.94;4899999;29;20045;-76
2021/10/14 09:57:56;;;;;;;3.53;1.85;;;;;;;-144.51;100.00;69251.94;4900212;29;20045;-76
2021/10/14 10:00:42;;;;;;;3.75;1.67;;;;;;;-144.51;100.00;69251.94;4914168;29;20036;-76
2021/10/14 10:03:28;;;;;;;2.33;1.48;;;;;;;-144.51;100.00;69251.94;4898979;29;20049;-76
2021/10/14 10:06:14;;;;;;;3.25;1.10;;;;;;;-144.51;100.00;69251.94;4895803;29;20425;-76
2021/10/14 10:09:29;;;;;;;2.45;1.05;;;;;;;-144.51;100.00;69251.94;4896932;29;20041;-75
2021/10/14 10:12:14;;;;;;;5.05;1.50;;;;;;;-144.51;100.00;69251.94;4890448;29;20037;-77
2021/10/14 10:15:00;;;;;;;7.07;1.75;;;;;;;-144.51;100.00;69251.94;4892039;29;20461;-76
2021/10/14 10:17:44;;;;;;;3.70;0.90;;;;;;;-144.51;100.00;69251.94;4889011;29;20048;-77
2021/10/14 10:20:37;;;;;;;1.85;0.85;;;;;;;-144.51;100.00;69251.94;4893202;29;20078;-75
2021/10/14 10:23:45;;;;;;;2.53;1.55;;;;;;;-144.51;100.00;69251.94;4888067;29;20041;-75
2021/10/14 10:26:32;;;;;;;4.05;1.40;;;;;;;-144.51;100.00;69251.94;4892461;29;20053;-76
2021/10/14 10:29:20;;;;;;;2.83;1.63;;;;;;;-144.51;100.00;69251.94;4884045;29;20410;-75
2021/10/14 10:32:04;;;;;;;5.07;1.45;;;;;;;-144.51;100.00;69251.94;4892420;29;20049;-78
2021/10/14 10:35:01;;;;;;;2.22;1.10;;;;;;;-144.51;100.00;69251.94;4893003;29;20044;-77
2021/10/14 10:37:47;;;;;;;3.45;1.55;;;;;;;-144.51;100.00;69251.94;4894794;29;20040;-78
2021/10/14 10:40:33;;;;;;;7.35;1.88;;;;;;;-144.51;100.00;69251.94;4898351;29;20044;-78
2021/10/14 10:43:18;;;;;;;1.90;1.42;;;;;;;-144.51;100.00;69251.94;4911952;29;20048;-77
2021/10/14 10:46:05;;;;;;;6.45;1.70;;;;;;;-144.51;100.00;69251.94;4899178;29;20044;-77
2021/10/14 10:48:50;;;;;;;2.33;1.52;;;;;;;-144.51;100.00;69251.94;4899423;29;20040;-78
2021/10/14 10:51:35;;;;;;;3.42;1.42;;;;;;;-144.51;100.00;69251.94;4900309;29;20049;-77
2021/10/14 10:54:38;;;;;;;4.40;1.65;;;;;;;-144.51;100.00;69251.94;4900817;29;20052;-78
2021/10/14 10:57:44;;;;;;;4.53;1.60;;;;;;;-144.51;100.00;69251.94;4897992;29;20044;-78
2021/10/14 11:00:29;;;;;;;3.70;1.50;;;;;;;-144.51;100.00;69251.94;4898191;29;20045;-78
2021/10/14 11:03:20;;;;;;;2.67;1.83;;;;;;;-144.51;100.00;69251.94;4896211;29;20508;-78
2021/10/14 11:06:10;;;;;;;22.13;2.60;;;;;;;-144.51;100.00;69251.94;4899353;29;20453;-78
2021/10/14 11:08:59;;;;;;;6.40;2.13;;;;;;;-144.51;100.00;69251.94;4898149;29;20425;-77
2021/10/14 11:11:44;;;;;;;4.88;1.77;;;;;;;-144.51;100.00;69251.94;4894126;29;20056;-79
2021/10/14 11:14:39;;;;;;;3.25;1.85;;;;;;;-144.51;100.00;69251.94;4887066;29;20040;-78
2021/10/14 11:17:27;;;;;;;4.93;1.40;;;;;;;-144.51;100.00;69251.94;4894278;29;20494;-78
2021/10/14 11:20:12;;;;;;;8.75;2.20;;;;;;;-144.51;100.00;69251.94;4883631;29;20044;-78
2021/10/14 11:23:07;;;;;;;;;;;;;;;-144.51;100.00;69251.94;4903061;29;20040;-79
2021/10/14 11:26:13;;;;;;;11.57;1.95;;;;;;;-144.51;100.00;69251.94;4899036;29;19919;-78
2021/10/14 11:29:06;;;;;;;3.28;1.58;;;;;;;-144.51;100.00;69251.94;4899625;29;20070;-79
2021/10/14 11:32:02;;;;;;;4.07;1.75;;;;;;;-144.51;100.00;69251.94;4902888;29;20048;-79
2021/10/14 11:34:46;;;;;;;5.88;2.03;;;;;;;-144.51;100.00;69251.94;4931717;23;20058;-61
2021/10/14 11:37:31;;;;;;;7.53;2.10;;;;;;;-144.51;100.00;69251.94;4873888;29;20056;-61
2021/10/14 11:40:32;;;;;;;;;;;;;;;-144.51;100.00;69251.94;4880309;29;20052;-62
2021/10/14 11:43:23;;;;;;;3.17;2.10;;;;;;;-144.51;100.00;69251.94;4876662;29;19919;-60
2021/10/14 11:46:08;;;;;;;7.05;1.98;;;;;;;-144.51;100.00;69251.94;4877826;29;20049;-60
2021/10/14 11:48:58;;;;;;;5.75;2.60;;;;;;;-144.51;100.00;69251.94;4880169;29;20053;-61
2021/10/14 11:51:43;;;;;;;8.63;2.97;;;;;;;-144.51;100.00;69251.94;4883690;29;20396;-61
2021/10/14 11:54:32;;;;;;;3.85;2.17;;;;;;;-144.51;100.00;69251.94;4861307;29;20049;-62
2021/10/14 11:57:29;;;;;;;5.70;2.53;;;;;;;-144.51;100.00;69251.94;4860897;29;20045;-61
2021/10/14 12:00:14;;;;;;;6.25;2.05;;;;;;;-144.51;100.00;69251.94;4873721;29;20037;-61
2021/10/14 12:02:59;;;;;;;6.43;2.80;;;;;;;-144.51;100.00;69251.94;4860943;29;20049;-63
2021/10/14 12:05:44;;;;;;;10.13;2.78;;;;;;;-144.51;100.00;69251.94;4860587;29;20033;-61
2021/10/14 12:08:30;;;;;;;18.58;2.80;;;;;;;-144.51;100.00;69251.94;4860894;29;20053;-61
2021/10/14 12:11:21;;;;;;;6.18;2.58;;;;;;;-144.51;100.00;69251.94;4877501;29;20048;-63
2021/10/14 12:14:07;;;;;;;3.88;1.55;;;;;;;-144.51;100.00;69251.94;4877015;29;20041;-63
2021/10/14 12:17:13;;;;;;;5.35;2.05;;;;;;;-144.51;100.00;69251.94;4886164;29;20045;-62
2021/10/14 12:20:10;;;;;;;3.97;2.40;;;;;;;-144.51;100.00;69251.94;4887260;29;20044;-62
2021/10/14 12:22:58;;;;;;;3.85;2.05;;;;;;;-144.51;100.00;69251.94;4894727;29;20040;-61
2021/10/14 12:25:43;;;;;;;8.60;2.40;;;;;;;-144.51;100.00;69251.94;4882016;29;20044;-61
2021/10/14 12:28:28;;;;;;;;;;;;;;;-144.51;100.00;69251.94;4877023;29;20053;-60
2021/10/14 12:31:13;;;;;;;5.07;2.10;;;;;;;-144.51;100.00;69251.94;4874709;29;19916;-61
2021/10/14 12:33:59;;;;;;;9.52;2.72;;;;;;;-144.51;100.00;69251.94;4864877;29;20420;-61
2021/10/14 12:36:47;;;;;;;10.00;2.55;;;;;;;-144.51;100.00;69251.94;4889754;29;20493;-62
2021/10/14 12:39:32;;;;;;;4.57;2.45;;;;;;;-144.51;100.00;69251.94;4897507;29;20048;-63
2021/10/14 12:42:18;;;;;;;;;;;;;;;-144.51;100.00;69251.94;4895623;29;20049;-62